Airfield :
LOGIN :

Register | Disclaimer

   EN    FR    IT 

 










Legend :    VFR   Marginal VFR   IFR   Intensive IFR   Very Intensive IFR
Visi :
Ceiling :
>= 8 km
>= 3000ft
5 to 8 km
1000 to 3000 ft
1500m to 5 km
500 to 1000 ft
800 to 1500m
200 to 500 ft
< 800m
< 200 ft
Symbols :   Thunderstorms  Fog  Heavy snow  Heavy precipitations  Wind > 20 kt
SIGMETs :     Misc.  Thunderstorms  Icing  Turbulence  Mountain Waves  Volcanic Ashes






- Airport Elevation : 32 ft
- IATA code : LKZ


EGUL - RAF Lakenheath

CURRENT METAR :
  • 050649Z AUTO 31017G22KT 9999 -RA SCT010 04/04 A2950 RMK AO2 RAE25DZB25E27DZB27E27RAB44 SLP993 $

EXPIRED METARs :
  • 050627Z AUTO 32015G23KT 9999 BKN011 04/04 A2949 RMK AO2 RAE25DZB25E27DZB27 CIG 008 RWY24 SLP990 $
  • 050556Z AUTO 31014G24KT 9999 RA OVC010 04/04 A2947 RMK AO2 RAE40DZB40E46RAB46 CIG 009 RWY24 SLP983 P0003 60017 T00370036 10038 20030 52024 $
  • 050506Z AUTO 31014KT 9999 -RA BKN010 04/04 A2945 RMK AO2 BKN V SCT SLP977 $
  • 050501Z AUTO 31013G21KT 9999 -RA SCT010 04/04 A2945 RMK AO2 SLP977 $

Expired Forecast.



MET'MAP, your aeronautical weather chart ! - Copyright ORBIFLY December 2007 - Disclaimer

ORBIFLY MET'MAP TEAM :

Programming & Development : Alexandra Zaïnal
Concept & original design : Baudouin d'Aumeries
Assistance for programming : Marc-Olivier Méhu
Technical & hardware support : Manuel Goepfert

Contact : metmap@orbifly.com




SOURCES & CREDITS :

   NOAA